createdAt,value
2017-05-09T00:00:29.307Z,957.38
2017-05-09T00:01:29.331Z,957.38
2017-05-09T00:02:29.359Z,957.41
2017-05-09T00:03:29.383Z,957.38
2017-05-09T00:04:29.409Z,957.38
2017-05-09T00:05:29.437Z,957.36
2017-05-09T00:06:29.455Z,957.4
2017-05-09T00:07:29.478Z,957.41
2017-05-09T00:08:29.507Z,957.4
2017-05-09T00:09:29.567Z,957.43
2017-05-09T00:10:29.553Z,957.42
2017-05-09T00:11:29.581Z,957.4
2017-05-09T00:12:29.603Z,957.45
2017-05-09T00:13:29.659Z,957.46
2017-05-09T00:14:29.706Z,957.45
2017-05-09T00:15:29.676Z,957.44
2017-05-09T00:16:29.699Z,957.47
2017-05-09T00:17:29.724Z,957.47
2017-05-09T00:18:29.750Z,957.43
2017-05-09T00:19:29.774Z,957.42
2017-05-09T00:20:29.799Z,957.44
2017-05-09T00:21:29.827Z,957.43
2017-05-09T00:22:29.850Z,957.45
2017-05-09T00:23:29.872Z,957.48
2017-05-09T00:24:29.896Z,957.45
2017-05-09T00:25:29.921Z,957.43
2017-05-09T00:26:29.947Z,957.47
2017-05-09T00:27:29.971Z,957.42
2017-05-09T00:28:29.994Z,957.39
2017-05-09T00:29:30.071Z,957.43
2017-05-09T00:30:30.047Z,957.45
2017-05-09T00:31:30.070Z,957.44
2017-05-09T00:32:30.094Z,957.42
2017-05-09T00:33:30.119Z,957.42
2017-05-09T00:34:30.142Z,957.42
2017-05-09T00:35:30.170Z,957.39
2017-05-09T00:36:30.192Z,957.35
2017-05-09T00:37:30.219Z,957.35
2017-05-09T00:38:30.243Z,957.34
2017-05-09T00:39:30.267Z,957.31
2017-05-09T00:40:30.293Z,957.33
2017-05-09T00:41:30.315Z,957.32
2017-05-09T00:42:30.341Z,957.29
2017-05-09T00:43:30.364Z,957.28
2017-05-09T00:44:30.390Z,957.33
2017-05-09T00:45:30.464Z,957.28
2017-05-09T00:46:30.438Z,957.27
2017-05-09T00:47:30.465Z,957.22
2017-05-09T00:48:30.488Z,957.25
2017-05-09T00:49:30.513Z,957.23
2017-05-09T00:50:30.536Z,957.21
2017-05-09T00:51:30.563Z,957.19
2017-05-09T00:52:30.600Z,957.19
2017-05-09T00:53:30.609Z,957.18
2017-05-09T00:54:30.635Z,957.16
2017-05-09T00:55:30.664Z,957.16
2017-05-09T00:56:30.684Z,957.15
2017-05-09T00:57:30.708Z,957.12
2017-05-09T00:58:30.735Z,957.17
2017-05-09T00:59:30.759Z,957.18
2017-05-09T01:00:30.783Z,957.2
2017-05-09T01:01:30.810Z,957.21
2017-05-09T01:02:31.371Z,957.17
2017-05-09T01:03:30.857Z,957.17
2017-05-09T01:04:30.881Z,957.14
2017-05-09T01:05:30.906Z,957.13
2017-05-09T01:06:30.930Z,957.13
2017-05-09T01:07:30.953Z,957.12
2017-05-09T01:08:30.982Z,957.13
2017-05-09T01:09:31.004Z,957.15
2017-05-09T01:10:31.029Z,957.12
2017-05-09T01:11:31.058Z,957.2
2017-05-09T01:12:31.077Z,957.17
2017-05-09T01:13:31.103Z,957.12
2017-05-09T01:14:31.129Z,957.18
2017-05-09T01:15:31.155Z,957.13
2017-05-09T01:16:31.175Z,957.1
2017-05-09T01:17:31.201Z,957.15
2017-05-09T01:18:31.223Z,957.12
2017-05-09T01:19:31.299Z,957.16
2017-05-09T01:20:31.279Z,957.13
2017-05-09T01:21:31.332Z,957.12
2017-05-09T01:22:31.322Z,957.11
2017-05-09T01:23:31.345Z,957.12
2017-05-09T01:24:31.501Z,957.12
2017-05-09T01:25:31.396Z,957.15
2017-05-09T01:26:31.419Z,957.16
2017-05-09T01:27:31.445Z,957.17
2017-05-09T01:28:31.469Z,957.14
2017-05-09T01:29:31.493Z,957.15
2017-05-09T01:30:31.527Z,957.15
2017-05-09T01:31:31.543Z,957.13
2017-05-09T01:32:31.566Z,957.18
2017-05-09T01:33:31.591Z,957.18
2017-05-09T01:34:31.666Z,957.2
2017-05-09T01:35:31.640Z,957.18
2017-05-09T01:36:31.666Z,957.18
2017-05-09T01:37:31.694Z,957.2
2017-05-09T01:38:31.713Z,957.22
2017-05-09T01:39:31.741Z,957.2
2017-05-09T01:40:31.765Z,957.19
2017-05-09T01:41:31.786Z,957.15
2017-05-09T01:42:31.811Z,957.18
2017-05-09T01:43:31.834Z,957.15
2017-05-09T01:44:31.860Z,957.16
2017-05-09T01:45:31.884Z,957.15
2017-05-09T01:46:31.911Z,957.19
2017-05-09T01:47:31.936Z,957.18
2017-05-09T01:48:31.964Z,957.17
2017-05-09T01:49:31.981Z,957.23
2017-05-09T01:50:32.058Z,957.27
2017-05-09T01:51:32.030Z,957.23
2017-05-09T01:52:32.054Z,957.26
2017-05-09T01:53:32.081Z,957.22
2017-05-09T01:54:32.104Z,957.22
2017-05-09T01:55:32.129Z,957.22
2017-05-09T01:56:32.156Z,957.22
2017-05-09T01:57:32.177Z,957.18
2017-05-09T01:58:32.202Z,957.19
2017-05-09T01:59:32.226Z,957.18
2017-05-09T02:00:32.257Z,957.2
2017-05-09T02:01:32.274Z,957.22
2017-05-09T02:02:32.332Z,957.21
2017-05-09T02:03:32.325Z,957.16
2017-05-09T02:04:32.350Z,957.18
2017-05-09T02:05:32.372Z,957.15
2017-05-09T02:06:32.447Z,957.14
2017-05-09T02:07:32.422Z,957.14
2017-05-09T02:08:32.447Z,957.12
2017-05-09T02:09:32.470Z,957.14
2017-05-09T02:10:32.502Z,957.1
2017-05-09T02:11:32.519Z,957.09
2017-05-09T02:12:32.545Z,957.11
2017-05-09T02:13:32.572Z,957.07
2017-05-09T02:14:32.594Z,957.09
2017-05-09T02:15:32.741Z,957.09
2017-05-09T02:16:32.642Z,957.01
2017-05-09T02:17:32.668Z,957.05
2017-05-09T02:18:32.715Z,957.05
2017-05-09T02:19:32.718Z,957.02
2017-05-09T02:20:32.744Z,957.01
2017-05-09T02:21:32.765Z,957.06
2017-05-09T02:22:32.838Z,957.03
2017-05-09T02:23:32.812Z,957.05
2017-05-09T02:24:32.836Z,957.04
2017-05-09T02:25:32.862Z,957.03
2017-05-09T02:26:32.885Z,957.06
2017-05-09T02:27:32.914Z,957.01
2017-05-09T02:28:32.934Z,957
2017-05-09T02:29:32.961Z,957
2017-05-09T02:30:32.983Z,957
2017-05-09T02:31:33.006Z,957.01
2017-05-09T02:32:33.033Z,956.99
2017-05-09T02:33:33.056Z,957
2017-05-09T02:34:33.085Z,957
2017-05-09T02:35:33.104Z,957.01
2017-05-09T02:36:33.129Z,957
2017-05-09T02:37:33.154Z,957.04
2017-05-09T02:38:33.231Z,956.99
2017-05-09T02:39:33.204Z,957.02
2017-05-09T02:40:33.249Z,957
2017-05-09T02:41:33.256Z,956.97
2017-05-09T02:42:33.275Z,956.97
2017-05-09T02:43:33.303Z,956.97
2017-05-09T02:44:33.326Z,956.98
2017-05-09T02:45:33.352Z,956.95
2017-05-09T02:46:33.373Z,956.96
2017-05-09T02:47:33.398Z,956.96
2017-05-09T02:48:33.423Z,956.99
2017-05-09T02:49:33.446Z,956.98
2017-05-09T02:50:33.472Z,956.96
2017-05-09T02:51:33.494Z,956.97
2017-05-09T02:52:33.519Z,956.95
2017-05-09T02:53:33.542Z,956.94
2017-05-09T02:54:33.566Z,956.97
2017-05-09T02:55:33.591Z,956.96
2017-05-09T02:56:33.616Z,956.96
2017-05-09T02:57:33.690Z,956.96
2017-05-09T02:58:33.664Z,956.95
2017-05-09T02:59:33.693Z,956.97
2017-05-09T03:00:33.722Z,956.94
2017-05-09T03:01:33.739Z,957
2017-05-09T03:02:33.761Z,956.97
2017-05-09T03:03:33.819Z,956.95
2017-05-09T03:04:33.810Z,956.93
2017-05-09T03:05:33.837Z,956.97
2017-05-09T03:06:33.859Z,956.95
2017-05-09T03:07:33.882Z,956.94
2017-05-09T03:08:33.915Z,956.94
2017-05-09T03:09:33.933Z,956.92
2017-05-09T03:10:33.959Z,956.91
2017-05-09T03:11:33.983Z,956.89
2017-05-09T03:12:34.004Z,956.89
2017-05-09T03:13:34.031Z,956.87
2017-05-09T03:14:34.104Z,956.89
2017-05-09T03:15:34.078Z,956.92
2017-05-09T03:16:34.107Z,956.89
2017-05-09T03:17:34.128Z,956.88
2017-05-09T03:18:34.150Z,956.88
2017-05-09T03:19:34.176Z,956.89
2017-05-09T03:20:34.200Z,956.89
2017-05-09T03:21:34.223Z,956.85
2017-05-09T03:22:34.248Z,956.89
2017-05-09T03:23:34.276Z,956.88
2017-05-09T03:24:34.297Z,956.88
2017-05-09T03:25:34.321Z,956.89
2017-05-09T03:26:34.344Z,956.9
2017-05-09T03:27:34.369Z,956.92
2017-05-09T03:28:34.393Z,956.92
2017-05-09T03:29:34.418Z,956.87
2017-05-09T03:30:34.490Z,956.84
2017-05-09T03:31:34.466Z,956.9
2017-05-09T03:32:34.491Z,956.88
2017-05-09T03:33:34.519Z,956.82
2017-05-09T03:34:34.539Z,956.82
2017-05-09T03:35:34.562Z,956.84
2017-05-09T03:36:34.596Z,956.81
2017-05-09T03:37:34.614Z,956.85
2017-05-09T03:38:34.634Z,956.84
2017-05-09T03:39:34.666Z,956.83
2017-05-09T03:40:34.683Z,956.81
2017-05-09T03:41:34.707Z,956.81
2017-05-09T03:42:34.734Z,956.76
2017-05-09T03:43:34.755Z,956.79
2017-05-09T03:44:34.780Z,956.8
2017-05-09T03:45:34.802Z,956.78
2017-05-09T03:46:34.829Z,956.81
2017-05-09T03:47:34.854Z,956.8
2017-05-09T03:48:34.930Z,956.78
2017-05-09T03:49:34.901Z,956.82
2017-05-09T03:50:34.925Z,956.82
2017-05-09T03:51:34.952Z,956.83
2017-05-09T03:52:34.976Z,956.83
2017-05-09T03:53:34.997Z,956.8
2017-05-09T03:54:35.025Z,956.79
2017-05-09T03:55:35.049Z,956.84
2017-05-09T03:56:35.070Z,956.83
2017-05-09T03:57:35.096Z,956.86
2017-05-09T03:58:35.118Z,956.85
2017-05-09T03:59:35.142Z,956.83
2017-05-09T04:00:35.167Z,956.82
2017-05-09T04:01:35.190Z,956.85
2017-05-09T04:02:35.217Z,956.81
2017-05-09T04:03:35.290Z,956.88
2017-05-09T04:04:35.263Z,956.83
2017-05-09T04:05:35.289Z,956.87
2017-05-09T04:06:35.312Z,956.85
2017-05-09T04:07:35.336Z,956.85
2017-05-09T04:08:35.366Z,956.84
2017-05-09T04:09:35.385Z,956.87
2017-05-09T04:10:35.409Z,956.86
2017-05-09T04:11:35.432Z,956.89
2017-05-09T04:12:35.459Z,956.89
2017-05-09T04:13:35.481Z,956.85
2017-05-09T04:14:35.507Z,956.87
2017-05-09T04:15:35.542Z,956.87
2017-05-09T04:16:35.553Z,956.86
2017-05-09T04:17:35.579Z,956.87
2017-05-09T04:18:35.601Z,956.86
2017-05-09T04:19:35.627Z,956.87
2017-05-09T04:20:35.651Z,956.85
2017-05-09T04:21:35.822Z,956.88
2017-05-09T04:22:35.699Z,956.88
2017-05-09T04:23:35.723Z,956.9
2017-05-09T04:24:35.745Z,956.88
2017-05-09T04:25:35.771Z,956.87
2017-05-09T04:26:35.794Z,956.86
2017-05-09T04:27:35.820Z,956.85
2017-05-09T04:28:35.841Z,956.89
2017-05-09T04:29:35.866Z,956.86
2017-05-09T04:30:35.891Z,956.86
2017-05-09T04:31:35.915Z,956.91
2017-05-09T04:32:35.936Z,956.89
2017-05-09T04:33:35.967Z,956.87
2017-05-09T04:34:35.991Z,956.86
2017-05-09T04:35:36.010Z,956.9
2017-05-09T04:36:36.035Z,956.88
2017-05-09T04:37:36.064Z,956.93
2017-05-09T04:38:36.085Z,956.92
2017-05-09T04:39:36.107Z,956.91
2017-05-09T04:40:36.181Z,956.93
2017-05-09T04:41:36.156Z,956.92
2017-05-09T04:42:36.180Z,956.92
2017-05-09T04:43:36.205Z,956.89
2017-05-09T04:44:36.229Z,956.91
2017-05-09T04:45:36.253Z,956.91
2017-05-09T04:46:36.279Z,956.92
2017-05-09T04:47:36.301Z,956.88
2017-05-09T04:48:36.327Z,956.9
2017-05-09T04:49:36.353Z,956.93
2017-05-09T04:50:36.379Z,956.93
2017-05-09T04:51:36.400Z,956.96
2017-05-09T04:52:36.424Z,956.95
2017-05-09T04:53:36.449Z,956.97
2017-05-09T04:54:36.489Z,956.93
2017-05-09T04:55:36.551Z,956.95
2017-05-09T04:56:36.524Z,956.95
2017-05-09T04:57:36.542Z,956.97
2017-05-09T04:58:36.574Z,956.96
2017-05-09T04:59:36.591Z,956.92
2017-05-09T05:00:36.619Z,956.96
2017-05-09T05:01:36.672Z,956.96
2017-05-09T05:02:36.666Z,956.96
2017-05-09T05:03:36.689Z,956.96
2017-05-09T05:04:36.712Z,956.91
2017-05-09T05:05:36.744Z,956.92
2017-05-09T05:06:36.764Z,956.93
2017-05-09T05:07:36.786Z,956.89
2017-05-09T05:08:36.811Z,956.93
2017-05-09T05:09:36.842Z,956.9
2017-05-09T05:10:36.926Z,956.92
2017-05-09T05:11:36.885Z,956.92
2017-05-09T05:12:36.907Z,956.93
2017-05-09T05:13:36.934Z,956.92
2017-05-09T05:14:36.958Z,956.93
2017-05-09T05:15:36.985Z,956.89
2017-05-09T05:16:37.007Z,956.94
2017-05-09T05:17:37.033Z,956.93
2017-05-09T05:18:37.057Z,956.94
2017-05-09T05:19:37.079Z,956.89
2017-05-09T05:20:37.105Z,956.91
2017-05-09T05:21:37.129Z,956.9
2017-05-09T05:22:37.155Z,956.89
2017-05-09T05:23:37.179Z,956.91
2017-05-09T05:24:37.204Z,956.88
2017-05-09T05:25:37.228Z,956.89
2017-05-09T05:26:37.301Z,956.91
2017-05-09T05:27:37.277Z,956.91
2017-05-09T05:28:37.351Z,956.91
2017-05-09T05:29:37.326Z,956.86
2017-05-09T05:30:37.349Z,956.88
2017-05-09T05:31:37.378Z,956.91
2017-05-09T05:32:37.399Z,956.86
2017-05-09T05:33:37.435Z,956.86
2017-05-09T05:34:37.449Z,956.92
2017-05-09T05:35:37.473Z,956.88
2017-05-09T05:36:37.497Z,956.93
2017-05-09T05:37:37.521Z,956.89
2017-05-09T05:38:37.547Z,956.91
2017-05-09T05:39:37.570Z,956.92
2017-05-09T05:40:37.604Z,956.98
2017-05-09T05:41:37.803Z,956.9
2017-05-09T05:42:37.813Z,956.92
2017-05-09T05:43:37.670Z,956.94
2017-05-09T05:44:37.693Z,956.92
2017-05-09T05:45:37.722Z,956.9
2017-05-09T05:46:37.743Z,956.96
2017-05-09T05:47:37.767Z,956.92
2017-05-09T05:48:37.789Z,956.91
2017-05-09T05:49:37.819Z,956.92
2017-05-09T05:50:37.844Z,956.93
2017-05-09T05:51:37.869Z,956.94
2017-05-09T05:52:37.889Z,956.94
2017-05-09T05:53:37.913Z,956.97
2017-05-09T05:54:37.938Z,956.94
2017-05-09T05:55:37.964Z,956.99
2017-05-09T05:56:37.986Z,956.99
2017-05-09T05:57:38.011Z,956.99
2017-05-09T05:58:38.087Z,956.95
2017-05-09T05:59:38.082Z,956.97
2017-05-09T06:00:38.085Z,956.94
2017-05-09T06:01:38.108Z,956.94
2017-05-09T06:02:38.133Z,956.99
2017-05-09T06:03:38.160Z,956.94
2017-05-09T06:04:38.186Z,957
2017-05-09T06:05:38.207Z,956.97
2017-05-09T06:06:38.230Z,956.93
2017-05-09T06:07:38.257Z,956.92
2017-05-09T06:08:38.283Z,956.96
2017-05-09T06:09:38.303Z,956.92
2017-05-09T06:10:38.329Z,956.94
2017-05-09T06:11:38.351Z,956.96
2017-05-09T06:12:38.378Z,956.95
2017-05-09T06:13:38.402Z,956.96
2017-05-09T06:14:38.426Z,956.96
2017-05-09T06:15:38.450Z,956.97
2017-05-09T06:16:38.530Z,956.98
2017-05-09T06:17:38.501Z,956.97
2017-05-09T06:18:38.521Z,956.98
2017-05-09T06:19:38.553Z,956.97
2017-05-09T06:20:38.596Z,956.97
2017-05-09T06:21:38.599Z,957
2017-05-09T06:22:38.629Z,957.01
2017-05-09T06:23:38.645Z,956.98
2017-05-09T06:24:38.669Z,957.01
2017-05-09T06:25:38.693Z,957.04
2017-05-09T06:26:38.718Z,957.02
2017-05-09T06:27:38.743Z,957.01
2017-05-09T06:28:38.769Z,957.03
2017-05-09T06:29:38.791Z,957.05
2017-05-09T06:30:38.816Z,957.05
2017-05-09T06:31:38.841Z,957.03
2017-05-09T06:32:38.864Z,957.06
2017-05-09T06:33:38.890Z,957.07
2017-05-09T06:34:38.966Z,957.05
2017-05-09T06:35:38.939Z,957.13
2017-05-09T06:36:38.962Z,957.07
2017-05-09T06:37:38.987Z,957.07
2017-05-09T06:38:39.012Z,957.09
2017-05-09T06:39:39.035Z,957.08
2017-05-09T06:40:39.060Z,957.09
2017-05-09T06:41:39.091Z,957.11
2017-05-09T06:42:39.110Z,957.11
2017-05-09T06:43:39.132Z,957.07
2017-05-09T06:44:39.161Z,957.09
2017-05-09T06:45:39.183Z,957.09
2017-05-09T06:46:39.206Z,957.08
2017-05-09T06:47:39.237Z,957.12
2017-05-09T06:48:39.254Z,957.08
2017-05-09T06:49:39.279Z,957.06
2017-05-09T06:50:39.305Z,957.08
2017-05-09T06:51:39.332Z,957.08
2017-05-09T06:52:39.352Z,957.1
2017-05-09T06:53:39.383Z,957.1
2017-05-09T06:54:39.402Z,957.15
2017-05-09T06:55:39.424Z,957.12
2017-05-09T06:56:39.450Z,957.12
2017-05-09T06:57:39.477Z,957.13
2017-05-09T06:58:39.501Z,957.09
2017-05-09T06:59:39.537Z,957.14
2017-05-09T07:00:39.549Z,957.13
2017-05-09T07:01:39.573Z,957.11
2017-05-09T07:02:39.597Z,957.09
2017-05-09T07:03:39.623Z,957.13
2017-05-09T07:04:39.647Z,957.12
2017-05-09T07:05:39.671Z,957.1
2017-05-09T07:06:39.702Z,957.07
2017-05-09T07:07:39.721Z,957.1
2017-05-09T07:08:39.744Z,957.1
2017-05-09T07:09:39.768Z,957.07
2017-05-09T07:10:39.794Z,957.08
2017-05-09T07:11:39.817Z,957.08
2017-05-09T07:12:39.841Z,957.09
2017-05-09T07:13:39.869Z,957.08
2017-05-09T07:14:39.890Z,957.07
2017-05-09T07:15:39.928Z,957.09
2017-05-09T07:16:39.945Z,957.06
2017-05-09T07:17:39.966Z,957.11
2017-05-09T07:18:39.988Z,957.11
2017-05-09T07:19:40.011Z,957.07
2017-05-09T07:20:40.036Z,957.1
2017-05-09T07:21:40.062Z,957.1
2017-05-09T07:22:40.087Z,957.09
2017-05-09T07:23:40.109Z,957.1
2017-05-09T07:24:40.134Z,957.09
2017-05-09T07:25:40.163Z,957.12
2017-05-09T07:26:40.184Z,957.11
2017-05-09T07:27:40.260Z,957.11
2017-05-09T07:28:40.233Z,957.11
2017-05-09T07:29:40.256Z,957.14
2017-05-09T07:30:40.281Z,957.11
2017-05-09T07:31:40.307Z,957.09
2017-05-09T07:32:40.335Z,957.12
2017-05-09T07:33:40.355Z,957.14
2017-05-09T07:34:40.380Z,957.12
2017-05-09T07:35:40.413Z,957.11
2017-05-09T07:36:40.428Z,957.12
2017-05-09T07:37:40.453Z,957.14
2017-05-09T07:38:40.485Z,957.11
2017-05-09T07:39:40.501Z,957.15
2017-05-09T07:40:40.531Z,957.12
2017-05-09T07:41:40.550Z,957.14
2017-05-09T07:42:40.576Z,957.15
2017-05-09T07:43:40.652Z,957.13
2017-05-09T07:44:40.624Z,957.13
2017-05-09T07:45:40.646Z,957.1
2017-05-09T07:46:40.671Z,957.13
2017-05-09T07:47:40.698Z,957.16
2017-05-09T07:48:40.725Z,957.16
2017-05-09T07:49:40.762Z,957.16
2017-05-09T07:50:40.772Z,957.19
2017-05-09T07:51:40.797Z,957.17
2017-05-09T07:52:40.818Z,957.13
2017-05-09T07:53:40.842Z,957.18
2017-05-09T07:54:40.870Z,957.16
2017-05-09T07:55:40.894Z,957.16
2017-05-09T07:56:40.919Z,957.17
2017-05-09T07:57:40.950Z,957.14
2017-05-09T07:58:40.966Z,957.16
2017-05-09T07:59:40.991Z,957.17
2017-05-09T08:00:41.015Z,957.17
2017-05-09T08:01:41.039Z,957.17
2017-05-09T08:02:41.064Z,957.14
2017-05-09T08:03:41.090Z,957.14
2017-05-09T08:04:41.113Z,957.17
2017-05-09T08:05:41.138Z,957.1
2017-05-09T08:06:41.162Z,957.13
2017-05-09T08:07:41.185Z,957.14
2017-05-09T08:08:41.209Z,957.13
2017-05-09T08:09:41.232Z,957.1
2017-05-09T08:10:41.260Z,957.12
2017-05-09T08:11:41.285Z,957.14
2017-05-09T08:12:41.310Z,957.14
2017-05-09T08:13:41.332Z,957.11
2017-05-09T08:14:41.358Z,957.1
2017-05-09T08:15:41.380Z,957.14
2017-05-09T08:16:41.407Z,957.14
2017-05-09T08:17:41.432Z,957.09
2017-05-09T08:18:41.452Z,957.14
2017-05-09T08:19:41.486Z,957.12
2017-05-09T08:20:41.503Z,957.11
2017-05-09T08:21:41.528Z,957.12
2017-05-09T08:22:41.551Z,957.14
2017-05-09T08:23:41.579Z,957.15
2017-05-09T08:24:41.610Z,957.16
2017-05-09T08:25:41.646Z,957.18
2017-05-09T08:26:41.648Z,957.21
2017-05-09T08:27:41.676Z,957.24
2017-05-09T08:28:41.698Z,957.25
2017-05-09T08:29:41.721Z,957.2
2017-05-09T08:30:41.747Z,957.22
2017-05-09T08:31:41.773Z,957.21
2017-05-09T08:32:41.800Z,957.22
2017-05-09T08:33:41.828Z,957.23
2017-05-09T08:34:41.846Z,957.25
2017-05-09T08:35:41.873Z,957.25
2017-05-09T08:36:41.894Z,957.2
2017-05-09T08:37:41.919Z,957.19
2017-05-09T08:38:41.942Z,957.21
2017-05-09T08:39:41.969Z,957.21
2017-05-09T08:40:41.995Z,957.18
2017-05-09T08:41:42.019Z,957.21
2017-05-09T08:42:42.042Z,957.25
2017-05-09T08:43:42.066Z,957.22
2017-05-09T08:44:42.095Z,957.23
2017-05-09T08:45:42.115Z,957.23
2017-05-09T08:46:42.145Z,957.23
2017-05-09T08:47:42.164Z,957.26
2017-05-09T08:48:42.191Z,957.27
2017-05-09T08:49:42.239Z,957.27
2017-05-09T08:50:42.241Z,957.26
2017-05-09T08:51:42.264Z,957.27
2017-05-09T08:52:42.290Z,957.27
2017-05-09T08:53:42.314Z,957.3
2017-05-09T08:54:42.337Z,957.31
2017-05-09T08:55:42.363Z,957.33
2017-05-09T08:56:42.388Z,957.32
2017-05-09T08:57:42.414Z,957.27
2017-05-09T08:58:42.441Z,957.33
2017-05-09T08:59:42.463Z,957.29
2017-05-09T09:00:42.488Z,957.25
2017-05-09T09:01:42.513Z,957.25
2017-05-09T09:02:42.537Z,957.29
2017-05-09T09:03:42.567Z,957.26
2017-05-09T09:04:42.590Z,957.27
2017-05-09T09:05:42.611Z,957.29
2017-05-09T09:06:42.637Z,957.28
2017-05-09T09:07:42.662Z,957.28
2017-05-09T09:08:42.689Z,957.27
2017-05-09T09:09:42.762Z,957.29
2017-05-09T09:10:42.737Z,957.29
2017-05-09T09:11:42.762Z,957.31
2017-05-09T09:12:42.812Z,957.28
2017-05-09T09:13:42.811Z,957.31
2017-05-09T09:14:42.838Z,957.3
2017-05-09T09:15:42.862Z,957.26
2017-05-09T09:16:42.915Z,957.28
2017-05-09T09:17:42.914Z,957.26
2017-05-09T09:18:42.937Z,957.24
2017-05-09T09:19:42.963Z,957.26
2017-05-09T09:20:42.987Z,957.27
2017-05-09T09:21:43.013Z,957.25
2017-05-09T09:22:43.040Z,957.25
2017-05-09T09:23:43.066Z,957.25
2017-05-09T09:24:43.088Z,957.28
2017-05-09T09:25:43.167Z,957.25
2017-05-09T09:26:43.141Z,957.25
2017-05-09T09:27:43.165Z,957.24
2017-05-09T09:28:43.200Z,957.26
2017-05-09T09:29:43.216Z,957.24
2017-05-09T09:30:43.242Z,957.24
2017-05-09T09:31:43.266Z,957.26
2017-05-09T09:32:43.292Z,957.23
2017-05-09T09:33:43.317Z,957.28
2017-05-09T09:34:43.345Z,957.28
2017-05-09T09:35:43.369Z,957.26
2017-05-09T09:36:43.395Z,957.23
2017-05-09T09:37:43.422Z,957.26
2017-05-09T09:38:43.444Z,957.29
2017-05-09T09:39:43.469Z,957.27
2017-05-09T09:40:43.498Z,957.29
2017-05-09T09:41:43.622Z,957.27
2017-05-09T09:42:43.547Z,957.29
2017-05-09T09:43:43.574Z,957.27
2017-05-09T09:44:43.598Z,957.25
2017-05-09T09:45:43.625Z,957.28
2017-05-09T09:46:43.648Z,957.25
2017-05-09T09:47:43.674Z,957.25
2017-05-09T09:48:43.699Z,957.28
2017-05-09T09:49:43.727Z,957.27
2017-05-09T09:50:43.749Z,957.23
2017-05-09T09:51:43.774Z,957.24
2017-05-09T09:52:43.806Z,957.3
2017-05-09T09:53:43.823Z,957.25
2017-05-09T09:54:43.850Z,957.28
2017-05-09T09:55:43.882Z,957.29
2017-05-09T09:56:43.951Z,957.29
2017-05-09T09:57:43.926Z,957.28
2017-05-09T09:58:43.953Z,957.27
2017-05-09T09:59:43.985Z,957.28
2017-05-09T10:00:44.005Z,957.25
2017-05-09T10:01:44.031Z,957.24
2017-05-09T10:02:44.058Z,957.25
2017-05-09T10:03:44.079Z,957.21
2017-05-09T10:04:44.104Z,957.23
2017-05-09T10:05:44.129Z,957.22
2017-05-09T10:06:44.156Z,957.26
2017-05-09T10:07:44.190Z,957.23
2017-05-09T10:08:44.207Z,957.2
2017-05-09T10:09:44.234Z,957.21
2017-05-09T10:10:44.258Z,957.18
2017-05-09T10:11:44.336Z,957.2
2017-05-09T10:12:44.308Z,957.19
2017-05-09T10:13:44.335Z,957.15
2017-05-09T10:14:44.363Z,957.15
2017-05-09T10:15:44.386Z,957.18
2017-05-09T10:16:44.410Z,957.14
2017-05-09T10:17:44.440Z,957.13
2017-05-09T10:18:44.465Z,957.13
2017-05-09T10:19:44.489Z,957.11
2017-05-09T10:20:44.513Z,957.09
2017-05-09T10:21:44.541Z,957.1
2017-05-09T10:22:44.566Z,957.09
2017-05-09T10:23:44.591Z,957.05
2017-05-09T10:24:44.618Z,957.08
2017-05-09T10:25:44.642Z,957.09
2017-05-09T10:26:44.719Z,957.09
2017-05-09T10:27:44.695Z,957.08
2017-05-09T10:28:44.721Z,957.08
2017-05-09T10:29:44.745Z,957.09
2017-05-09T10:30:44.777Z,957.08
2017-05-09T10:31:44.796Z,957.06
2017-05-09T10:32:44.822Z,957.1
2017-05-09T10:33:44.847Z,957.06
2017-05-09T10:34:44.875Z,957.06
2017-05-09T10:35:44.899Z,957.02
2017-05-09T10:36:44.925Z,957.03
2017-05-09T10:37:44.986Z,957.02
2017-05-09T10:38:44.987Z,956.98
2017-05-09T10:39:45.007Z,957.02
2017-05-09T10:40:45.031Z,956.96
2017-05-09T10:41:45.103Z,957.01
2017-05-09T10:42:45.078Z,957.01
2017-05-09T10:43:45.108Z,956.99
2017-05-09T10:44:45.129Z,957
2017-05-09T10:45:45.161Z,956.95
2017-05-09T10:46:45.181Z,956.96
2017-05-09T10:47:45.209Z,956.92
2017-05-09T10:48:45.233Z,956.95
2017-05-09T10:49:45.260Z,956.91
2017-05-09T10:50:45.287Z,956.93
2017-05-09T10:51:45.314Z,956.91
2017-05-09T10:52:45.337Z,956.94
2017-05-09T10:53:45.361Z,956.95
2017-05-09T10:54:45.391Z,956.93
2017-05-09T10:55:45.417Z,956.92
2017-05-09T10:56:45.440Z,956.91
2017-05-09T10:57:45.472Z,956.91
2017-05-09T10:58:45.591Z,956.93
2017-05-09T10:59:45.516Z,956.97
2017-05-09T11:00:45.543Z,956.94
2017-05-09T11:01:45.570Z,956.93
2017-05-09T11:02:45.598Z,956.9
2017-05-09T11:03:45.625Z,956.91
2017-05-09T11:04:45.651Z,956.94
2017-05-09T11:05:45.673Z,956.91
2017-05-09T11:06:45.703Z,956.95
2017-05-09T11:07:45.725Z,956.89
2017-05-09T11:08:45.751Z,956.93
2017-05-09T11:09:45.776Z,956.91
2017-05-09T11:10:45.834Z,956.93
2017-05-09T11:11:45.829Z,956.88
2017-05-09T11:12:45.861Z,956.89
2017-05-09T11:13:45.881Z,956.87
2017-05-09T11:14:45.905Z,956.88
2017-05-09T11:15:45.938Z,956.86
2017-05-09T11:16:45.961Z,956.83
2017-05-09T11:17:46.034Z,956.83
2017-05-09T11:18:46.012Z,956.81
2017-05-09T11:19:46.038Z,956.76
2017-05-09T11:20:46.061Z,956.75
2017-05-09T11:21:46.088Z,956.68
2017-05-09T11:22:46.115Z,956.68
2017-05-09T11:23:46.142Z,956.72
2017-05-09T11:24:46.165Z,956.73
2017-05-09T11:25:46.240Z,956.75
2017-05-09T11:26:46.231Z,956.7
2017-05-09T11:27:46.245Z,956.67
2017-05-09T11:28:46.269Z,956.68
2017-05-09T11:29:46.297Z,956.68
2017-05-09T11:30:46.322Z,956.64
2017-05-09T11:31:46.349Z,956.66
2017-05-09T11:32:46.375Z,956.66
2017-05-09T11:33:46.400Z,956.65
2017-05-09T11:34:46.428Z,956.66
2017-05-09T11:35:46.453Z,956.64
2017-05-09T11:36:46.479Z,956.64
2017-05-09T11:37:46.505Z,956.66
2017-05-09T11:38:46.531Z,956.68
2017-05-09T11:39:46.556Z,956.65
2017-05-09T11:40:46.583Z,956.67
2017-05-09T11:41:46.609Z,956.69
2017-05-09T11:42:46.640Z,956.62
2017-05-09T11:43:46.661Z,956.67
2017-05-09T11:44:46.691Z,956.63
2017-05-09T11:45:46.714Z,956.67
2017-05-09T11:46:46.739Z,956.67
2017-05-09T11:47:46.766Z,956.68
2017-05-09T11:48:46.792Z,956.65
2017-05-09T11:49:46.818Z,956.6
2017-05-09T11:50:46.845Z,956.66
2017-05-09T11:51:46.871Z,956.64
2017-05-09T11:52:46.897Z,956.7
2017-05-09T11:53:46.978Z,956.65
2017-05-09T11:54:46.948Z,956.68
2017-05-09T11:55:46.975Z,956.69
2017-05-09T11:56:47.002Z,956.72
2017-05-09T11:57:47.027Z,956.72
2017-05-09T11:58:47.054Z,956.7
2017-05-09T11:59:47.080Z,956.66
2017-05-09T12:00:47.107Z,956.67
2017-05-09T12:01:47.130Z,956.71
2017-05-09T12:02:47.157Z,956.68
2017-05-09T12:03:47.182Z,956.65
2017-05-09T12:04:47.208Z,956.68
2017-05-09T12:05:47.239Z,956.67
2017-05-09T12:06:47.321Z,956.67
2017-05-09T12:07:47.315Z,956.66
2017-05-09T12:08:47.313Z,956.69
2017-05-09T12:09:47.391Z,956.65
2017-05-09T12:10:47.371Z,956.62
2017-05-09T12:11:47.392Z,956.64
2017-05-09T12:12:47.416Z,956.59
2017-05-09T12:13:47.443Z,956.6
2017-05-09T12:14:47.469Z,956.58
2017-05-09T12:15:47.496Z,956.56
2017-05-09T12:16:47.525Z,956.53
2017-05-09T12:17:47.547Z,956.52
2017-05-09T12:18:47.572Z,956.51
2017-05-09T12:19:47.597Z,956.57
2017-05-09T12:20:47.627Z,956.54
2017-05-09T12:21:47.683Z,956.52
2017-05-09T12:22:47.689Z,956.54
2017-05-09T12:23:47.703Z,956.51
2017-05-09T12:24:47.728Z,956.52
2017-05-09T12:25:47.754Z,956.5
2017-05-09T12:26:47.781Z,956.5
2017-05-09T12:27:47.863Z,956.48
2017-05-09T12:28:47.836Z,956.49
2017-05-09T12:29:47.857Z,956.5
2017-05-09T12:30:47.881Z,956.46
2017-05-09T12:31:47.909Z,956.5